Time;durP1;ratioP1;P1;durP2;ratioP2;P2;SDS_P1;SDS_P2;PMS_P1;PMS_P2;Temp;Humidity;BMP_temperature;BMP_pressure;BME280_temperature;BME280_humidity;BME280_pressure;Samples;Min_cycle;Max_cycle;Signal;HPM_P1;HPM_P2
2022/02/14 00:00:55;;;;;;;6.70;3.15;;;5.60;63.10;;;;;;5034960;28;20029;-66
2022/02/14 00:03:21;;;;;;;5.03;2.80;;;5.50;63.00;;;;;;5034010;28;20426;-67
2022/02/14 00:05:46;;;;;;;6.40;3.13;;;5.50;63.50;;;;;;5034772;28;20361;-66
2022/02/14 00:08:12;;;;;;;5.93;2.78;;;5.40;63.50;;;;;;5034298;28;20041;-67
2022/02/14 00:10:38;;;;;;;6.53;3.03;;;5.40;62.80;;;;;;5034373;28;20030;-68
2022/02/14 00:13:04;;;;;;;5.80;2.90;;;5.50;61.70;;;;;;5033112;28;20076;-66
2022/02/14 00:15:29;;;;;;;7.18;3.25;;;5.70;61.10;;;;;;5038675;28;20111;-66
2022/02/14 00:17:55;;;;;;;6.78;3.10;;;5.60;61.20;;;;;;5036703;28;20497;-66
2022/02/14 00:20:21;;;;;;;5.88;2.92;;;5.60;60.90;;;;;;5036830;28;20030;-66
2022/02/14 00:22:47;;;;;;;6.55;2.70;;;5.60;60.60;;;;;;5038034;28;20041;-67
2022/02/14 00:25:13;;;;;;;7.18;3.00;;;5.60;59.90;;;;;;5038711;28;20471;-67
2022/02/14 00:27:39;;;;;;;9.77;3.05;;;5.70;59.40;;;;;;5038123;28;20017;-68
2022/02/14 00:30:06;;;;;;;6.63;2.90;;;5.60;59.40;;;;;;5030439;28;20030;-67
2022/02/14 00:32:32;;;;;;;6.88;2.58;;;5.70;59.70;;;;;;5027142;28;20048;-67
2022/02/14 00:34:57;;;;;;;6.95;2.88;;;5.60;59.70;;;;;;5036787;28;20031;-68
2022/02/14 00:37:23;;;;;;;6.38;2.80;;;5.60;58.80;;;;;;5033462;28;20314;-67
2022/02/14 00:39:49;;;;;;;7.10;2.80;;;5.60;59.30;;;;;;5038244;28;20036;-68
2022/02/14 00:42:15;;;;;;;6.65;2.90;;;5.60;58.70;;;;;;5040856;28;20029;-67
2022/02/14 00:44:41;;;;;;;8.02;3.30;;;5.70;58.40;;;;;;5038094;28;20033;-67
2022/02/14 00:47:06;;;;;;;5.30;2.65;;;5.90;58.40;;;;;;5036679;28;20025;-66
2022/02/14 00:49:32;;;;;;;7.60;2.50;;;5.90;57.90;;;;;;5038465;28;20021;-68
2022/02/14 00:51:58;;;;;;;7.18;2.67;;;6.00;58.00;;;;;;5037330;28;20022;-67
2022/02/14 00:54:23;;;;;;;7.25;2.80;;;5.90;58.80;;;;;;5038070;28;20030;-67
2022/02/14 00:56:49;;;;;;;6.00;2.60;;;5.80;58.90;;;;;;5037816;28;20030;-66
2022/02/14 00:59:15;;;;;;;6.53;2.80;;;5.80;59.20;;;;;;5038058;28;20423;-67
2022/02/14 01:01:40;;;;;;;5.53;2.65;;;5.80;59.20;;;;;;5035900;28;20036;-67
2022/02/14 01:04:06;;;;;;;6.18;2.60;;;5.90;58.90;;;;;;5037181;28;20458;-67
2022/02/14 01:06:32;;;;;;;4.72;2.58;;;5.90;59.20;;;;;;5035258;28;20033;-67
2022/02/14 01:08:58;;;;;;;8.18;2.25;;;5.90;59.40;;;;;;5037750;28;20025;-67
2022/02/14 01:11:24;;;;;;;5.60;2.47;;;5.80;60.10;;;;;;5037853;28;20027;-67
2022/02/14 01:13:50;;;;;;;6.82;2.75;;;5.70;59.70;;;;;;5037943;28;20426;-67
2022/02/14 01:16:15;;;;;;;6.40;2.40;;;5.80;59.40;;;;;;5037430;28;20025;-67
2022/02/14 01:18:41;;;;;;;5.43;2.75;;;5.90;59.40;;;;;;5036799;28;20055;-67
2022/02/14 01:21:07;;;;;;;5.88;2.00;;;5.90;59.40;;;;;;5038065;28;20053;-67
2022/02/14 01:23:32;;;;;;;6.57;2.28;;;5.90;58.70;;;;;;5037773;28;20326;-67
2022/02/14 01:25:58;;;;;;;7.18;2.75;;;6.00;59.20;;;;;;5036145;28;20039;-67
2022/02/14 01:28:24;;;;;;;5.68;2.50;;;5.90;59.40;;;;;;5037310;28;20029;-67
2022/02/14 01:30:49;;;;;;;7.97;2.92;;;6.00;58.90;;;;;;5036992;28;20404;-66
2022/02/14 01:33:15;;;;;;;4.10;2.10;;;6.00;58.70;;;;;;5036202;28;20049;-67
2022/02/14 01:35:41;;;;;;;6.70;2.67;;;6.10;59.00;;;;;;5037504;28;20083;-66
2022/02/14 01:38:06;;;;;;;5.75;2.50;;;6.10;58.70;;;;;;5036620;28;20333;-67
2022/02/14 01:40:32;;;;;;;7.60;2.67;;;6.00;59.50;;;;;;5034178;28;20117;-67
2022/02/14 01:42:59;;;;;;;6.18;3.00;;;5.90;59.50;;;;;;5037169;28;20021;-67
2022/02/14 01:45:24;;;;;;;7.20;2.60;;;5.80;59.70;;;;;;5036964;28;20445;-67
2022/02/14 01:47:50;;;;;;;6.95;2.88;;;5.90;59.10;;;;;;5028700;28;20029;-66
2022/02/14 01:50:16;;;;;;;5.13;2.47;;;6.00;59.50;;;;;;5036625;28;20072;-66
2022/02/14 01:52:43;;;;;;;7.07;3.03;;;6.00;59.00;;;;;;5036288;28;20030;-66
2022/02/14 01:55:12;;;;;;;6.70;2.60;;;6.00;58.90;;;;;;5036725;28;20104;-66
2022/02/14 01:57:39;;;;;;;5.43;2.45;;;6.00;59.00;;;;;;5037044;28;20028;-65
2022/02/14 02:00:08;;;;;;;6.00;2.70;;;6.00;58.60;;;;;;5035745;28;20029;-66
2022/02/14 02:02:34;;;;;;;5.63;2.72;;;5.90;58.90;;;;;;5031916;28;20029;-68
2022/02/14 02:05:01;;;;;;;6.20;2.72;;;5.90;59.30;;;;;;5036714;28;20033;-67
2022/02/14 02:07:27;;;;;;;6.05;2.75;;;5.90;59.20;;;;;;5036963;28;20021;-67
2022/02/14 02:09:53;;;;;;;5.53;2.80;;;5.90;59.20;;;;;;5036374;28;20021;-69
2022/02/14 02:12:26;;;;;;;6.10;2.42;;;5.80;59.10;;;;;;5036851;28;20124;-68
2022/02/14 02:15:00;;;;;;;8.23;2.88;;;5.80;59.30;;;;;;5036764;28;20021;-67
2022/02/14 02:17:32;;;;;;;7.03;2.53;;;5.80;59.30;;;;;;5035141;28;20028;-67
2022/02/14 02:19:57;;;;;;;6.50;3.20;;;5.90;59.30;;;;;;5037672;28;20407;-67
2022/02/14 02:22:23;;;;;;;7.15;2.80;;;6.00;59.30;;;;;;5036716;28;20021;-68
2022/02/14 02:24:57;;;;;;;7.93;2.83;;;5.90;59.40;;;;;;5036006;28;20053;-67
2022/02/14 02:27:25;;;;;;;6.93;2.70;;;6.00;59.10;;;;;;5036044;28;20725;-67
2022/02/14 02:29:53;;;;;;;7.40;2.78;;;6.00;59.10;;;;;;5047709;28;20795;-67
2022/02/14 02:32:19;;;;;;;7.85;2.50;;;6.00;59.00;;;;;;5027540;28;20326;-67
2022/02/14 02:34:45;;;;;;;6.13;2.80;;;5.90;59.30;;;;;;5031386;28;20038;-67
2022/02/14 02:37:13;;;;;;;7.30;3.00;;;5.90;58.70;;;;;;5035594;28;20026;-67
2022/02/14 02:39:41;;;;;;;7.65;2.63;;;5.90;58.90;;;;;;5036434;28;20448;-67
2022/02/14 02:42:08;;;;;;;5.10;2.70;;;6.10;58.40;;;;;;5036146;28;20029;-67
2022/02/14 02:44:35;;;;;;;5.25;2.60;;;5.90;58.50;;;;;;5035796;28;20029;-67
2022/02/14 02:47:04;;;;;;;5.18;2.53;;;5.80;59.00;;;;;;5032203;28;20032;-67
2022/02/14 02:49:30;;;;;;;6.65;2.75;;;5.70;58.70;;;;;;5033076;28;20398;-67
2022/02/14 02:51:59;;;;;;;7.22;2.80;;;5.60;58.70;;;;;;5034418;28;20441;-67
2022/02/14 02:54:25;;;;;;;4.85;2.50;;;5.60;58.50;;;;;;5034928;28;20052;-67
2022/02/14 02:56:53;;;;;;;7.40;2.78;;;5.70;58.80;;;;;;5033119;28;20033;-67
2022/02/14 02:59:20;;;;;;;5.72;2.70;;;5.60;58.70;;;;;;5038731;28;20021;-67
2022/02/14 03:01:46;;;;;;;5.25;2.70;;;5.50;58.90;;;;;;5035261;28;20059;-68
2022/02/14 03:04:14;;;;;;;7.53;3.03;;;5.50;58.50;;;;;;5034562;28;20078;-66
2022/02/14 03:06:41;;;;;;;6.45;2.55;;;5.60;58.20;;;;;;5037947;28;20026;-67
2022/02/14 03:09:07;;;;;;;6.63;2.75;;;5.50;58.50;;;;;;5034836;28;20021;-67
2022/02/14 03:11:34;;;;;;;5.70;2.95;;;5.50;58.60;;;;;;5027568;28;20334;-67
2022/02/14 03:14:00;;;;;;;7.70;2.72;;;5.40;58.90;;;;;;5030708;28;20055;-67
2022/02/14 03:16:26;;;;;;;7.57;3.00;;;5.50;58.70;;;;;;5028532;28;20373;-67
2022/02/14 03:18:52;;;;;;;6.25;2.40;;;5.60;58.80;;;;;;5027837;28;20072;-67
2022/02/14 03:21:21;;;;;;;5.82;2.75;;;5.60;58.60;;;;;;5029011;28;20061;-67
2022/02/14 03:23:48;;;;;;;4.57;2.35;;;5.60;58.60;;;;;;5028543;28;20053;-67
2022/02/14 03:26:16;;;;;;;5.97;2.47;;;5.60;58.40;;;;;;5029066;28;20112;-67
2022/02/14 03:28:43;;;;;;;5.72;2.65;;;5.60;58.40;;;;;;5027730;28;20029;-68
2022/02/14 03:31:11;;;;;;;5.03;2.58;;;5.60;58.80;;;;;;5028923;28;20572;-66
2022/02/14 03:33:38;;;;;;;8.30;3.03;;;5.60;59.00;;;;;;5028050;28;20041;-67
2022/02/14 03:36:05;;;;;;;7.35;2.70;;;5.70;58.80;;;;;;5030127;28;20037;-67
2022/02/14 03:38:31;;;;;;;6.38;2.67;;;5.80;59.30;;;;;;5035698;28;20415;-67
2022/02/14 03:40:56;;;;;;;5.72;2.65;;;5.90;59.40;;;;;;5030738;28;20159;-67
2022/02/14 03:43:22;;;;;;;5.43;2.90;;;6.00;59.70;;;;;;5029597;28;20030;-66
2022/02/14 03:45:48;;;;;;;7.10;3.00;;;5.80;60.50;;;;;;5033275;28;20030;-66
2022/02/14 03:48:16;;;;;;;5.60;2.58;;;5.60;61.20;;;;;;5032134;28;20052;-67
2022/02/14 03:50:42;;;;;;;5.65;2.88;;;5.40;61.00;;;;;;5032958;28;20021;-67
2022/02/14 03:53:07;;;;;;;6.05;2.80;;;5.40;60.40;;;;;;5032313;28;20017;-67
2022/02/14 03:55:33;;;;;;;7.32;2.97;;;5.40;60.40;;;;;;5032768;28;20128;-67
2022/02/14 03:57:59;;;;;;;6.85;2.92;;;5.40;60.70;;;;;;5029770;28;20029;-67
2022/02/14 04:00:25;;;;;;;7.93;3.17;;;5.40;61.20;;;;;;5032512;28;20030;-68
2022/02/14 04:02:52;;;;;;;8.60;2.85;;;5.40;61.10;;;;;;5032767;28;20025;-67
2022/02/14 04:05:19;;;;;;;7.72;3.15;;;5.30;61.70;;;;;;5035115;28;20040;-69
2022/02/14 04:07:45;;;;;;;5.95;2.70;;;5.30;62.00;;;;;;5031922;28;20076;-67
2022/02/14 04:10:13;;;;;;;7.22;3.33;;;5.20;62.50;;;;;;5032457;28;20036;-66
2022/02/14 04:12:40;;;;;;;7.93;3.85;;;5.20;62.60;;;;;;5031930;28;20088;-67
2022/02/14 04:15:07;;;;;;;10.48;4.10;;;5.10;62.90;;;;;;5028700;28;20088;-66
2022/02/14 04:17:33;;;;;;;6.50;3.28;;;5.00;62.90;;;;;;5032869;28;20029;-67
2022/02/14 04:19:59;;;;;;;39.38;18.65;;;4.90;63.10;;;;;;5032913;28;20463;-68
2022/02/14 04:22:26;;;;;;;117.13;48.00;;;4.90;63.70;;;;;;5034489;28;20064;-67
2022/02/14 04:24:51;;;;;;;93.35;36.28;;;5.00;63.50;;;;;;5032606;28;20041;-67
2022/02/14 04:27:19;;;;;;;147.73;55.47;;;4.90;64.10;;;;;;5033534;28;20021;-67
2022/02/14 04:29:45;;;;;;;164.60;62.13;;;5.00;63.90;;;;;;5029886;28;20544;-67
2022/02/14 04:32:11;;;;;;;93.88;38.83;;;5.10;63.30;;;;;;5031300;28;20033;-67
2022/02/14 04:34:37;;;;;;;69.30;37.45;;;5.10;64.10;;;;;;5036288;28;20410;-66
2022/02/14 04:37:06;;;;;;;6.90;3.30;;;5.20;63.70;;;;;;5034925;28;20033;-66
2022/02/14 04:39:32;;;;;;;6.53;3.00;;;5.30;63.50;;;;;;5034285;28;20318;-67
2022/02/14 04:41:58;;;;;;;5.65;2.80;;;5.40;63.20;;;;;;5027555;28;20026;-66
2022/02/14 04:44:24;;;;;;;9.30;3.95;;;5.30;63.40;;;;;;5034586;28;20373;-66
2022/02/14 04:46:49;;;;;;;7.38;3.20;;;5.40;63.50;;;;;;5033589;28;20084;-66
2022/02/14 04:49:15;;;;;;;9.20;2.95;;;5.60;63.10;;;;;;5039846;28;20112;-66
2022/02/14 04:51:41;;;;;;;8.68;3.90;;;5.60;63.50;;;;;;5031759;28;20025;-66
2022/02/14 04:54:07;;;;;;;9.68;5.65;;;5.40;64.70;;;;;;5033772;28;20114;-66
2022/02/14 04:56:33;;;;;;;9.05;3.47;;;5.30;64.60;;;;;;5034567;28;20105;-68
2022/02/14 04:58:58;;;;;;;9.52;4.50;;;5.20;65.50;;;;;;5046989;28;20052;-67
2022/02/14 05:01:24;;;;;;;8.15;3.20;;;4.70;66.90;;;;;;5033912;28;20305;-67
2022/02/14 05:03:51;;;;;;;5.90;3.15;;;4.50;66.60;;;;;;5042013;28;20033;-67
2022/02/14 05:06:17;;;;;;;7.97;2.80;;;4.90;65.50;;;;;;5037685;28;20056;-67
2022/02/14 05:08:43;;;;;;;6.43;2.83;;;5.50;64.40;;;;;;5041726;28;20097;-69
2022/02/14 05:11:10;;;;;;;7.57;2.90;;;5.70;63.90;;;;;;5034756;28;20117;-67
2022/02/14 05:13:40;;;;;;;10.40;3.33;;;5.80;64.20;;;;;;5037431;28;20363;-67
2022/02/14 05:16:06;;;;;;;8.77;3.78;;;5.70;64.70;;;;;;5040392;28;20052;-67
2022/02/14 05:18:32;;;;;;;5.78;2.60;;;5.50;65.90;;;;;;5036607;28;20476;-68
2022/02/14 05:20:58;;;;;;;6.90;2.90;;;5.50;65.10;;;;;;5036442;28;20033;-67
2022/02/14 05:23:26;;;;;;;5.72;2.83;;;5.70;64.90;;;;;;5036662;28;20029;-67
2022/02/14 05:25:52;;;;;;;9.75;2.90;;;5.80;65.00;;;;;;5035808;28;20075;-67
2022/02/14 05:28:18;;;;;;;8.20;3.00;;;5.80;64.80;;;;;;5041796;28;20026;-67
2022/02/14 05:30:44;;;;;;;7.20;3.00;;;5.80;64.80;;;;;;5037323;28;20033;-66
2022/02/14 05:33:09;;;;;;;7.43;2.70;;;5.90;64.90;;;;;;5036095;28;20056;-68
2022/02/14 05:35:35;;;;;;;8.43;3.00;;;6.00;64.90;;;;;;5033073;28;20025;-67
2022/02/14 05:38:01;;;;;;;9.95;3.35;;;5.80;65.40;;;;;;5037493;28;20330;-67
2022/02/14 05:40:28;;;;;;;8.63;2.50;;;5.80;65.50;;;;;;5036509;28;20108;-67
2022/02/14 05:42:54;;;;;;;6.63;3.40;;;5.90;65.20;;;;;;5037447;28;20030;-66
2022/02/14 05:45:20;;;;;;;8.40;2.88;;;5.70;66.00;;;;;;5035116;28;20021;-67
2022/02/14 05:47:46;;;;;;;7.50;2.92;;;5.50;65.70;;;;;;5035223;28;20076;-68
2022/02/14 05:50:11;;;;;;;9.95;2.95;;;5.30;66.60;;;;;;5039384;28;20025;-67
2022/02/14 05:52:39;;;;;;;7.95;2.97;;;5.20;66.80;;;;;;5037647;28;20048;-67
2022/02/14 05:55:07;;;;;;;7.22;2.60;;;5.30;66.00;;;;;;5036847;28;20083;-68
2022/02/14 05:57:33;;;;;;;7.03;2.70;;;5.60;65.60;;;;;;5034487;28;20072;-67
2022/02/14 05:59:58;;;;;;;7.93;2.85;;;5.70;65.30;;;;;;5019970;28;20030;-66
2022/02/14 06:02:24;;;;;;;6.07;2.63;;;5.90;64.70;;;;;;5025476;28;20025;-67
2022/02/14 06:04:50;;;;;;;9.27;2.80;;;5.80;65.20;;;;;;5028931;28;20057;-67
2022/02/14 06:07:16;;;;;;;9.32;3.10;;;5.80;65.20;;;;;;5036490;28;20080;-67
2022/02/14 06:09:42;;;;;;;8.07;2.92;;;5.90;65.60;;;;;;5035667;28;20120;-67
2022/02/14 06:12:08;;;;;;;8.65;4.03;;;6.20;65.50;;;;;;5036789;28;20410;-67
2022/02/14 06:14:33;;;;;;;7.93;2.60;;;6.30;65.70;;;;;;5036850;28;20079;-67
2022/02/14 06:16:59;;;;;;;8.25;2.90;;;6.40;66.20;;;;;;5024119;28;20034;-67
2022/02/14 06:19:25;;;;;;;9.23;2.95;;;6.60;66.00;;;;;;5030621;28;20327;-67
2022/02/14 06:21:50;;;;;;;9.15;2.70;;;6.70;65.70;;;;;;5031502;28;20088;-67
2022/02/14 06:24:17;;;;;;;9.95;3.20;;;6.60;65.60;;;;;;5018964;28;20033;-67
2022/02/14 06:26:43;;;;;;;6.10;2.72;;;6.60;66.00;;;;;;5027612;28;20026;-66
2022/02/14 06:29:08;;;;;;;8.88;3.20;;;6.50;65.90;;;;;;5035640;28;20314;-67
2022/02/14 06:31:34;;;;;;;9.90;3.20;;;6.30;66.80;;;;;;5045341;28;20163;-67
2022/02/14 06:34:00;;;;;;;7.57;3.15;;;6.10;66.90;;;;;;5026582;28;20025;-66
2022/02/14 06:36:27;;;;;;;9.32;3.08;;;6.10;67.30;;;;;;5028549;28;20033;-67
2022/02/14 06:38:57;;;;;;;6.85;3.00;;;6.00;67.80;;;;;;5044266;28;20032;-66
2022/02/14 06:41:25;;;;;;;9.15;2.80;;;5.90;67.70;;;;;;5043103;28;20139;-67
2022/02/14 06:43:52;;;;;;;5.88;2.50;;;6.00;67.80;;;;;;5035371;28;20029;-67
2022/02/14 06:46:17;;;;;;;9.35;3.03;;;6.10;67.70;;;;;;5033190;28;20032;-67
2022/02/14 06:48:43;;;;;;;11.07;3.75;;;6.20;67.70;;;;;;5035127;28;20310;-67
2022/02/14 06:51:11;;;;;;;10.95;3.10;;;6.00;67.80;;;;;;5036390;28;20358;-69
2022/02/14 06:53:37;;;;;;;9.52;2.78;;;6.00;68.10;;;;;;5027802;28;20322;-67
2022/02/14 06:56:05;;;;;;;7.00;2.80;;;6.10;67.90;;;;;;5017015;28;20054;-67
2022/02/14 06:58:35;;;;;;;7.63;3.33;;;6.00;68.20;;;;;;5033116;28;20025;-67
2022/02/14 07:01:03;;;;;;;7.28;2.90;;;6.10;67.90;;;;;;5036730;28;20465;-67
2022/02/14 07:03:28;;;;;;;10.65;3.30;;;6.10;67.90;;;;;;5034972;28;20037;-67
2022/02/14 07:05:54;;;;;;;9.45;3.05;;;6.20;68.10;;;;;;5036353;28;20091;-67
2022/02/14 07:08:20;;;;;;;9.90;2.75;;;6.10;67.90;;;;;;5036203;28;20108;-67
2022/02/14 07:10:45;;;;;;;8.95;3.75;;;6.10;68.50;;;;;;5019150;28;20399;-68
2022/02/14 07:13:11;;;;;;;8.40;3.40;;;6.20;68.00;;;;;;5016852;28;20022;-66
2022/02/14 07:15:37;;;;;;;7.65;3.45;;;6.30;68.10;;;;;;5016606;28;20056;-68
2022/02/14 07:18:04;;;;;;;8.88;2.88;;;6.30;68.50;;;;;;5024889;28;20109;-67
2022/02/14 07:20:30;;;;;;;6.78;2.85;;;6.50;68.40;;;;;;5036224;28;20029;-67
2022/02/14 07:22:57;;;;;;;8.13;3.17;;;6.70;68.40;;;;;;5035417;28;20044;-67
2022/02/14 07:25:22;;;;;;;7.22;3.35;;;6.70;68.50;;;;;;5036205;28;20028;-67
2022/02/14 07:27:48;;;;;;;7.90;2.80;;;6.70;68.00;;;;;;5035783;28;20021;-67
2022/02/14 07:30:14;;;;;;;7.80;3.13;;;6.60;68.60;;;;;;5036267;28;20120;-67
2022/02/14 07:32:40;;;;;;;8.13;2.90;;;6.60;68.80;;;;;;5034564;28;20041;-67
2022/02/14 07:35:06;;;;;;;7.05;2.70;;;6.60;68.70;;;;;;5035998;28;20453;-66
2022/02/14 07:37:33;;;;;;;13.27;2.95;;;6.80;68.80;;;;;;5035946;28;20049;-67
2022/02/14 07:39:59;;;;;;;11.43;3.13;;;6.90;68.40;;;;;;5036061;28;20288;-66
2022/02/14 07:42:24;;;;;;;10.80;3.28;;;7.00;68.30;;;;;;5035808;28;20025;-66
2022/02/14 07:44:50;;;;;;;7.10;2.97;;;7.10;68.50;;;;;;5036062;28;20411;-66
2022/02/14 07:47:16;;;;;;;12.07;2.85;;;7.10;68.70;;;;;;5034429;28;20042;-66
2022/02/14 07:49:41;;;;;;;12.40;2.65;;;7.20;68.60;;;;;;5036031;28;20029;-68
2022/02/14 07:52:08;;;;;;;9.65;2.90;;;7.30;68.50;;;;;;5035219;28;20037;-67
2022/02/14 07:54:33;;;;;;;8.23;3.25;;;7.40;68.30;;;;;;5035842;28;20036;-67
2022/02/14 07:56:59;;;;;;;9.00;3.10;;;7.50;68.20;;;;;;5035675;28;20034;-67
2022/02/14 07:59:25;;;;;;;7.95;2.40;;;7.40;68.50;;;;;;5035946;28;20030;-68
2022/02/14 08:01:52;;;;;;;7.35;2.70;;;7.40;68.60;;;;;;5023240;28;20304;-68
2022/02/14 08:04:18;;;;;;;8.52;3.20;;;7.60;68.50;;;;;;5014794;28;20018;-67
2022/02/14 08:06:44;;;;;;;7.90;3.35;;;7.80;68.30;;;;;;5029191;28;20053;-66
2022/02/14 08:09:11;;;;;;;6.28;2.67;;;7.90;68.20;;;;;;5035627;28;20079;-67
2022/02/14 08:11:37;;;;;;;10.93;2.80;;;7.90;68.40;;;;;;5035530;28;20429;-68
2022/02/14 08:14:03;;;;;;;8.55;2.95;;;8.00;68.30;;;;;;5035948;28;20057;-68
2022/02/14 08:16:30;;;;;;;10.13;3.05;;;8.10;68.00;;;;;;5035363;28;20029;-67
2022/02/14 08:18:56;;;;;;;8.95;2.80;;;8.20;68.30;;;;;;5034606;28;20302;-67
2022/02/14 08:21:23;;;;;;;7.50;3.05;;;8.30;68.20;;;;;;5035459;28;20021;-67
2022/02/14 08:23:48;;;;;;;8.48;2.88;;;9.20;67.20;;;;;;5035654;28;20025;-67
2022/02/14 08:26:14;;;;;;;8.10;3.50;;;10.20;65.70;;;;;;5030813;28;20036;-68
2022/02/14 08:28:40;;;;;;;10.93;2.72;;;11.10;63.50;;;;;;5032991;28;20030;-67
2022/02/14 08:31:06;;;;;;;9.75;3.13;;;11.40;62.60;;;;;;5021224;28;20022;-66
2022/02/14 08:33:32;;;;;;;8.88;2.53;;;11.60;62.00;;;;;;5015624;28;20045;-67
2022/02/14 08:35:58;;;;;;;8.13;2.55;;;11.50;62.20;;;;;;5035547;28;20036;-67
2022/02/14 08:38:23;;;;;;;6.68;2.58;;;11.40;61.80;;;;;;5037837;28;20018;-67
2022/02/14 08:40:52;;;;;;;9.27;2.50;;;10.90;62.80;;;;;;5040329;28;20025;-67
2022/02/14 08:43:18;;;;;;;11.85;2.78;;;10.40;64.30;;;;;;5037601;28;20025;-67
2022/02/14 08:45:43;;;;;;;6.18;2.50;;;10.00;65.80;;;;;;5038748;28;20083;-68
2022/02/14 08:48:09;;;;;;;7.18;2.40;;;9.90;66.00;;;;;;5045790;28;20398;-67
2022/02/14 08:50:40;;;;;;;7.85;2.72;;;10.10;66.00;;;;;;5038975;28;20059;-67
2022/02/14 08:53:06;;;;;;;9.10;2.40;;;10.10;66.60;;;;;;5038656;28;20074;-67
2022/02/14 08:55:32;;;;;;;5.75;2.33;;;10.00;66.40;;;;;;5038904;28;20109;-68
2022/02/14 08:57:58;;;;;;;9.32;3.05;;;9.80;67.00;;;;;;5038447;28;20029;-67
2022/02/14 09:00:23;;;;;;;7.15;2.30;;;9.60;67.10;;;;;;5038642;28;20426;-67
2022/02/14 09:02:49;;;;;;;8.82;2.78;;;9.60;67.40;;;;;;5034051;28;20092;-67
2022/02/14 09:05:15;;;;;;;10.60;3.08;;;9.60;67.80;;;;;;5038194;28;20029;-67
2022/02/14 09:07:41;;;;;;;8.23;2.95;;;9.70;67.10;;;;;;5037378;28;20017;-67
2022/02/14 09:10:07;;;;;;;5.75;2.20;;;9.70;67.00;;;;;;5038306;28;20036;-67
2022/02/14 09:12:33;;;;;;;11.45;3.67;;;9.70;67.20;;;;;;5037827;28;20527;-67
2022/02/14 09:14:59;;;;;;;12.30;3.33;;;9.70;67.40;;;;;;5038288;28;20025;-67
2022/02/14 09:17:25;;;;;;;10.85;2.65;;;9.70;67.00;;;;;;5036866;28;20548;-67
2022/02/14 09:19:52;;;;;;;8.10;2.33;;;9.70;67.40;;;;;;5038435;28;20049;-67
2022/02/14 09:22:18;;;;;;;11.45;2.83;;;9.60;67.00;;;;;;5037939;28;20437;-67
2022/02/14 09:24:44;;;;;;;9.48;2.33;;;9.90;66.80;;;;;;5038396;28;20104;-67
2022/02/14 09:27:10;;;;;;;9.15;3.17;;;9.90;65.90;;;;;;5038164;28;20112;-67
2022/02/14 09:29:36;;;;;;;6.30;2.33;;;9.70;66.20;;;;;;5031810;28;20087;-67
2022/02/14 09:32:03;;;;;;;8.55;2.63;;;9.60;66.90;;;;;;5036208;28;20102;-67
2022/02/14 09:34:29;;;;;;;9.00;2.95;;;9.70;66.40;;;;;;5035768;28;20026;-67
2022/02/14 09:36:56;;;;;;;10.40;2.75;;;9.70;66.60;;;;;;5036167;28;20438;-66
2022/02/14 09:39:22;;;;;;;8.30;2.30;;;9.90;66.70;;;;;;5037943;28;20032;-67
2022/02/14 09:41:48;;;;;;;7.80;2.67;;;10.00;65.90;;;;;;5039417;28;20060;-68
2022/02/14 09:44:14;;;;;;;9.43;2.70;;;10.10;66.00;;;;;;5037458;28;20060;-67
2022/02/14 09:46:42;;;;;;;11.38;2.42;;;10.50;65.70;;;;;;5034019;28;20029;-67
2022/02/14 09:49:09;;;;;;;6.38;2.40;;;10.90;65.50;;;;;;5034764;28;20075;-67
2022/02/14 09:51:36;;;;;;;8.32;2.25;;;11.90;63.70;;;;;;5034473;28;20025;-67
2022/02/14 09:54:03;;;;;;;7.95;2.40;;;12.70;62.40;;;;;;5034977;28;20052;-67
2022/02/14 09:56:35;;;;;;;8.35;2.10;;;13.60;61.50;;;;;;5035114;28;20026;-67
2022/02/14 09:59:05;;;;;;;8.20;2.30;;;14.40;59.60;;;;;;5035436;28;20409;-67
2022/02/14 10:01:31;;;;;;;7.93;1.90;;;15.70;59.40;;;;;;5033946;28;20025;-68
2022/02/14 10:04:00;;;;;;;8.52;1.90;;;16.40;55.80;;;;;;5034594;28;20358;-67
2022/02/14 10:06:27;;;;;;;9.75;1.80;;;16.40;57.20;;;;;;5033663;28;20041;-67
2022/02/14 10:09:11;;;;;;;7.72;2.40;;;16.70;57.70;;;;;;5035577;28;20021;-68
2022/02/14 10:11:42;;;;;;;;;;;16.20;58.50;;;;;;5034109;28;20088;-67
2022/02/14 10:14:15;;;;;;;4.68;1.77;;;15.40;59.20;;;;;;5035575;28;19917;-68
2022/02/14 10:17:22;;;;;;;10.00;2.17;;;15.40;61.00;;;;;;5035590;28;20034;-68
2022/02/14 10:19:56;;;;;;;5.68;1.60;;;14.70;61.60;;;;;;5012368;28;20095;-67
2022/02/14 10:22:21;;;;;;;;;;;14.50;63.70;;;;;;5014270;28;20029;-67
2022/02/14 10:24:47;;;;;;;4.38;1.48;;;14.90;62.30;;;;;;5026731;28;20317;-68
2022/02/14 10:27:15;;;;;;;6.32;2.40;;;15.80;60.90;;;;;;5034990;28;20319;-67
2022/02/14 10:29:43;;;;;;;5.85;1.60;;;15.70;60.90;;;;;;5034793;28;20287;-67
2022/02/14 10:32:09;;;;;;;6.78;1.70;;;14.60;62.40;;;;;;5031388;28;20026;-68
2022/02/14 10:34:39;;;;;;;6.53;2.08;;;13.70;64.50;;;;;;5032030;28;20025;-66
2022/02/14 10:37:06;;;;;;;4.82;1.80;;;13.30;66.00;;;;;;5032588;28;20044;-66
2022/02/14 10:39:33;;;;;;;8.02;2.10;;;13.30;66.80;;;;;;5033961;28;20029;-66
2022/02/14 10:42:03;;;;;;;7.47;2.20;;;13.20;67.00;;;;;;5032070;28;20037;-66
2022/02/14 10:47:35;;;;;;;5.18;1.77;;;12.30;69.50;;;;;;5032065;28;20075;-67
2022/02/14 10:50:11;;;;;;;5.35;1.80;;;12.30;69.40;;;;;;5033887;28;20024;-67
2022/02/14 10:52:44;;;;;;;6.63;1.85;;;12.30;69.40;;;;;;5031938;28;20091;-67
2022/02/14 10:55:33;;;;;;;6.75;2.40;;;12.30;69.70;;;;;;5031994;28;20022;-67
2022/02/14 10:58:00;;;;;;;9.18;1.92;;;12.10;70.20;;;;;;5031305;28;20075;-68
2022/02/14 11:00:34;;;;;;;9.75;2.80;;;12.40;71.20;;;;;;5031343;28;20025;-67
2022/02/14 11:03:06;;;;;;;6.47;2.50;;;12.50;69.40;;;;;;5031687;28;20406;-67
2022/02/14 11:05:32;;;;;;;5.47;1.73;;;12.40;69.80;;;;;;5036302;28;20029;-67
2022/02/14 11:07:59;;;;;;;4.22;1.52;;;12.20;70.30;;;;;;5032131;28;20033;-67
2022/02/14 11:10:26;;;;;;;6.85;1.65;;;12.10;70.40;;;;;;5031921;28;20101;-67
2022/02/14 11:12:57;;;;;;;6.15;2.13;;;11.80;70.60;;;;;;5030871;28;20018;-66
2022/02/14 11:15:34;;;;;;;6.90;1.95;;;11.80;71.10;;;;;;5031316;28;20029;-66
2022/02/14 11:18:08;;;;;;;6.57;2.05;;;12.00;71.30;;;;;;5031596;28;20103;-67
2022/02/14 11:20:34;;;;;;;9.25;1.88;;;11.90;69.90;;;;;;5028729;28;20040;-67
2022/02/14 11:23:01;;;;;;;5.70;1.77;;;12.00;70.80;;;;;;5032755;28;20037;-67
2022/02/14 11:25:36;;;;;;;6.22;1.52;;;12.10;70.20;;;;;;5031552;28;20029;-67
2022/02/14 11:28:36;;;;;;;5.70;1.85;;;12.00;70.00;;;;;;5032427;28;20041;-67
2022/02/14 11:31:17;;;;;;;5.88;2.28;;;11.80;71.20;;;;;;5029791;28;20594;-67
2022/02/14 11:33:51;;;;;;;6.53;2.13;;;11.70;71.00;;;;;;5030419;28;20119;-67
2022/02/14 11:36:17;;;;;;;5.47;1.92;;;11.40;71.20;;;;;;5030674;28;20027;-67
2022/02/14 11:38:50;;;;;;;6.75;2.03;;;11.30;71.50;;;;;;5030665;28;20163;-67
2022/02/14 11:41:35;;;;;;;8.30;2.22;;;11.40;71.10;;;;;;5029509;28;20040;-67
2022/02/14 11:44:22;;;;;;;7.15;1.80;;;11.30;72.40;;;;;;5031565;28;20047;-67
2022/02/14 11:47:08;;;;;;;7.15;1.83;;;11.30;73.10;;;;;;5033480;28;20330;-67
2022/02/14 11:49:35;;;;;;;5.00;1.90;;;11.30;73.50;;;;;;5031103;28;20087;-67
2022/02/14 11:52:00;;;;;;;9.27;2.20;;;11.20;73.10;;;;;;5031607;28;20093;-66
2022/02/14 11:54:40;;;;;;;5.28;1.92;;;11.20;72.80;;;;;;5027602;28;20033;-67
2022/02/14 11:57:40;;;;;;;5.82;1.98;;;11.20;71.90;;;;;;5028234;28;20087;-67
2022/02/14 12:00:15;;;;;;;8.95;1.95;;;11.10;72.10;;;;;;5032023;28;20326;-66
2022/02/14 12:02:54;;;;;;;4.68;1.70;;;11.00;73.30;;;;;;5027023;28;20024;-67
2022/02/14 12:05:41;;;;;;;4.97;1.70;;;11.00;73.10;;;;;;5030797;28;20044;-67
2022/02/14 12:08:07;;;;;;;6.30;2.88;;;11.30;74.00;;;;;;5033509;28;20029;-67
2022/02/14 12:10:44;;;;;;;5.57;1.58;;;11.40;74.30;;;;;;5034461;28;20048;-66
2022/02/14 12:13:13;;;;;;;6.43;1.23;;;11.70;74.20;;;;;;5032292;28;20019;-65
2022/02/14 12:21:26;;;;;;;5.57;1.23;;;11.60;76.20;;;;;;5035833;28;20051;-67
2022/02/14 12:23:56;;;;;;;3.42;1.52;;;11.60;76.80;;;;;;5033727;28;20026;-67
2022/02/14 12:26:30;;;;;;;2.88;1.30;;;11.40;77.20;;;;;;5034403;28;20025;-67
2022/02/14 12:31:51;;;;;;;4.40;1.83;;;11.20;78.20;;;;;;5033997;28;20044;-67
2022/02/14 12:34:30;;;;;;;5.50;2.05;;;11.20;78.50;;;;;;5032230;28;20067;-67
2022/02/14 12:37:05;;;;;;;3.05;1.33;;;11.40;78.10;;;;;;5034052;28;20029;-67
2022/02/14 12:39:31;;;;;;;7.78;2.92;;;11.50;77.70;;;;;;5034266;28;20022;-67
2022/02/14 12:41:57;;;;;;;4.30;1.20;;;11.60;77.30;;;;;;5035061;28;20074;-66
2022/02/14 12:44:29;;;;;;;4.30;1.73;;;11.70;77.20;;;;;;5034658;28;20108;-68
2022/02/14 12:46:56;;;;;;;4.93;1.80;;;11.70;77.30;;;;;;5035035;28;20040;-67
2022/02/14 12:49:21;;;;;;;3.03;1.30;;;11.60;77.40;;;;;;5048768;28;20026;-66
2022/02/14 12:51:47;;;;;;;3.78;1.05;;;12.00;77.00;;;;;;5035893;28;20024;-66
2022/02/14 12:54:13;;;;;;;3.28;1.15;;;12.40;75.90;;;;;;5033321;28;20028;-67
2022/02/14 12:56:41;;;;;;;3.67;1.10;;;12.50;75.60;;;;;;5034990;28;20029;-67
2022/02/14 12:59:11;;;;;;;5.45;1.40;;;12.40;75.00;;;;;;5033563;28;20018;-67
2022/02/14 13:01:39;;;;;;;3.47;1.08;;;12.20;75.80;;;;;;5034516;28;20100;-66
2022/02/14 13:04:09;;;;;;;4.88;1.25;;;12.00;76.70;;;;;;5032996;28;20060;-67
2022/02/14 13:06:36;;;;;;;5.38;1.30;;;11.80;77.30;;;;;;5035524;28;20334;-66